Marshall Municipal-Ryan, MN

10:02 AM CDT on July 29, 2014 (GMT -0500)
Granite Falls (KGDB) Elev 1047 ft | 44.75 °N, 95.56 °W | Change Station

Current weather conditions updated 8 minutes ago

Clear
Clear
65 °F
Feels Like 65 °F
N
5
Wind Variable Wind from West

Today is forecast to be nearly the same temperature as yesterday.

Today
High -- | Low -- °F
--% Chance of Precip.
Yesterday
High -- | Low -- °F
Precip. -- in
6:06 AM 8:51 PM
Waxing Crescent, 6% visible
Pressure 30.21 in
Visibility 10.0 miles
Clouds Clear
Dew Point 58 °F
Humidity 78%
Rainfall 0.00 in
Snow Depth Not available.
UV 5 out of 12
Pollen 5.90 out of 12
Air Quality Not available.
Flu Activity Not available.
METAR KGDB 291454Z AUTO 28004KT 10SM CLR 19/15 A3021 RMK AO2 T01850146

More Conditions Fewer Conditions

Pressure 30.21 in
Visibility 10.0 miles
Clouds Clear
Dew Point 58 °F
Humidity 78%
Rainfall 0.00 in
Snow Depth Not available.
UV 5 out of 12
Pollen 5.90 out of 12
Air Quality Not available.
Flu Activity Not available.
METAR KGDB 291454Z AUTO 28004KT 10SM CLR 19/15 A3021 RMK AO2 T01850146

More Conditions Fewer Conditions

10-Day Weather Forecast

Almanac

Astronomy

Jul. 29, 2014 Rise Set
Actual Time 6:06 AM CDT 8:51 PM CDT
Civil Twilight 5:33 AM CDT 9:25 PM CDT
Nautical Twilight 4:50 AM CDT 10:07 PM CDT
Astronomical Twilight 4:01 AM CDT 10:56 PM CDT
Moon 8:52 AM CDT 9:55 PM CDT
Length of Visible Light 15h 52m
Length of Day
14h 44m
Tomorrow will be 2m 16s shorter.
Waxing Crescent, 6% of the Moon is Illuminated
Today
Waxing Crescent
Aug 3
First Quarter
Aug 10
Full
Aug 17
Last Quarter
Aug 25
New

Today's Extremes

State Highs State Lows

Community

WunderPhotos

Upload Photos

1,738,759 photos uploaded!

WunderBlogs® & News

Nearby

Snow Depth

Station Depth Elevation
No new snow has been reported.

Earthquake Activity

City Distance Mag. Time & Date
No recent earthquake activity has been reported nearby.
Minimum magnitude displayed is 2.5.

Coastal Water Temperatures

Place Temperature
No Stations Reporting

Nearby Weather Stations

Station Location Temp. Dew Point Humidity Wind Precip. Elev Updated Type
Samuel Luth. School, Marshall, MN 67.8 °F 58 °F 71% WNW  at  1.0 mph 0.00 in / hr 1145 ft 10:02 AM CDT Rapid Fire
Rock Lake, Balaton, MN 67.1 °F 58 °F 73% NNE  at  0.0 mph 0.00 in / hr 1568 ft 10:02 AM CDT Rapid Fire
Tyler, MN 66.4 °F 56 °F 69% NNE  at  0.0 mph 0.00 in / hr 1752 ft 10:00 AM CDT Normal
Ivanhoe, MN 66.2 °F 57 °F 73% NNW  at  1.1 mph 0.00 in / hr 1754 ft 10:02 AM CDT Rapid Fire

Show More Stations Show Fewer Stations